Skip Navigation Links
NOAA logo - Click to go to the NOAA homepage
NOAA's National Weather Service
Alaska Aviation Weather Unit
  NWS logo - Click to go to the NWS homepage
Left Navbar Graphic     12 AKDT = 20 GMT

   
NOAA is celebrating 200 years of science, service, and stewardship. Visit the NOAA 200th celebration Web site to learn more.
USA.gov is the U.S. Government's official Web portal to all Federal, state and local government Web resources and services.
Facebook
NWS on Facebook

Important Change Regarding the AAWU Web Presence

 

Over the last several months, the AAWU has been working to navigate its webpages to a nationally supported server. Security, as well as other needs, have necessitated the change.  We have been given an extension for the site changeover while we diligently work at addressing feedback received. As of July 14, 2017, aawu.arh.noaa.gov will be discontinued. The new AAWU web address is weather.gov/aawu. It is now live and will run in-parallel with the old site until it is discontinued on July 14, 2017. Please continue to send any feedback or questions regarding the new webpages to nws.ar.aawu.webauthors@noaa.gov.  Thank you for your patience during this time of transition.
AAWU Home :: Display TAF Add Bookmark
METAR PAIN 251456Z AUTO 00000KT 10SM BKN037 OVC065 11/10 A2998 RMK AO2
     RAE16 SLP166 P0000 60004 T01060100 56005=

METAR PAIN 251556Z AUTO 00000KT 10SM OVC037 12/11 A2998 RMK AO2 SLP166
     T01170111=

METAR PAIN 251656Z AUTO 00000KT 10SM BKN038 OVC046 12/10 A2996 RMK AO2
     SLP161 T01220100=

METAR PAIN 251756Z AUTO 00000KT 10SM OVC040 13/10 A2996 RMK AO2 SLP158
     60004 T01330100 10133 20106 58008=

METAR PAIN 251856Z AUTO 00000KT 10SM BKN033 OVC090 14/09 A2994 RMK
 AO2 SLP153 T01440094=

METAR PAIN 251956Z AUTO VRB03KT 10SM OVC041 16/09 A2993 RMK AO2 SLP147
     T01610094=


NOAA's National Weather Service
Alaska Aviation Weather Unit
6930 Sand Lake Road
Anchorage, AK 99502-1845
Disclaimer
Credits
Glossary
Privacy Policy
About Us
Career Opportunities
Contact AAWU Internet Services Site last modified: April, 17th 2012